Terminal Aerodrome Forecast
Issued by NWS

Home | Current Version | Previous Version | Text Only | Print | Product List | Glossary On
Versions: 1 2 3 4 5 6 7 8 9 10 11 12 13 14 15 16 17 18 19 20 21
000
FTUS42 KJAX 231300 AAB
TAFVQQ
TAF AMD
KVQQ 231359Z 2314/2412 28007KT P6SM SCT035
     FM232300 11006KT P6SM SCT060
     FM240100 VRB03KT P6SM FEW060 SCT250
      TEMPO 2408/2412 4SM BR=

USA.gov is the U.S. government's official web portal to all federal, state and local government web resources and services.